createdAt,value
2018-09-27T00:00:22.414Z,22.63
2018-09-27T00:00:54.037Z,22.61
2018-09-27T00:01:25.670Z,22.63
2018-09-27T00:01:57.275Z,22.64
2018-09-27T00:02:28.879Z,22.64
2018-09-27T00:03:00.482Z,22.63
2018-09-27T00:03:32.086Z,22.62
2018-09-27T00:04:03.684Z,22.63
2018-09-27T00:04:35.291Z,22.62
2018-09-27T00:05:06.894Z,22.61
2018-09-27T00:05:38.504Z,22.62
2018-09-27T00:06:10.132Z,22.63
2018-09-27T00:06:41.725Z,22.63
2018-09-27T00:07:13.324Z,22.62
2018-09-27T00:07:44.927Z,22.60
2018-09-27T00:08:16.530Z,22.63
2018-09-27T00:08:48.138Z,22.63
2018-09-27T00:09:19.751Z,22.63
2018-09-27T00:09:51.358Z,22.63
2018-09-27T00:10:22.964Z,22.63
2018-09-27T00:10:54.570Z,22.62
2018-09-27T00:11:26.174Z,22.61
2018-09-27T00:11:57.779Z,22.61
2018-09-27T00:12:29.390Z,22.59
2018-09-27T00:13:00.994Z,22.59
2018-09-27T00:13:32.606Z,22.57
2018-09-27T00:14:04.200Z,22.56
2018-09-27T00:14:35.792Z,22.56
2018-09-27T00:15:07.398Z,22.53
2018-09-27T00:15:38.988Z,22.53
2018-09-27T00:16:10.618Z,22.52
2018-09-27T00:16:42.222Z,22.49
2018-09-27T00:17:13.833Z,22.50
2018-09-27T00:17:45.438Z,22.50
2018-09-27T00:18:17.042Z,22.49
2018-09-27T00:18:48.657Z,22.48
2018-09-27T00:19:20.267Z,22.49
2018-09-27T00:19:51.871Z,22.45
2018-09-27T00:20:23.486Z,22.47
2018-09-27T00:20:55.080Z,22.47
2018-09-27T00:21:26.682Z,22.47
2018-09-27T00:21:58.272Z,22.47
2018-09-27T00:22:29.878Z,22.47
2018-09-27T00:23:01.484Z,22.46
2018-09-27T00:23:33.090Z,22.45
2018-09-27T00:24:04.694Z,22.45
2018-09-27T00:24:36.299Z,22.44
2018-09-27T00:25:07.907Z,22.45
2018-09-27T00:25:39.510Z,22.45
2018-09-27T00:26:11.148Z,22.45
2018-09-27T00:26:42.799Z,22.43
2018-09-27T00:27:14.407Z,22.44
2018-09-27T00:27:45.996Z,22.44
2018-09-27T00:28:17.592Z,22.44
2018-09-27T00:28:49.200Z,22.44
2018-09-27T00:29:20.797Z,22.44
2018-09-27T00:29:52.394Z,22.43
2018-09-27T00:30:23.984Z,22.43
2018-09-27T00:30:55.566Z,22.42
2018-09-27T00:31:27.171Z,22.42
2018-09-27T00:31:58.800Z,22.42
2018-09-27T00:32:30.379Z,22.42
2018-09-27T00:33:01.987Z,22.42
2018-09-27T00:33:33.576Z,22.42
2018-09-27T00:34:05.187Z,22.41
2018-09-27T00:34:36.795Z,22.41
2018-09-27T00:35:08.384Z,22.41
2018-09-27T00:35:39.991Z,22.41
2018-09-27T00:36:11.602Z,22.41
2018-09-27T00:36:43.218Z,22.41
2018-09-27T00:37:14.795Z,22.41
2018-09-27T00:37:46.390Z,22.41
2018-09-27T00:38:17.994Z,22.41
2018-09-27T00:38:49.584Z,22.41
2018-09-27T00:39:21.190Z,22.41
2018-09-27T00:39:52.780Z,22.42
2018-09-27T00:40:24.376Z,22.43
2018-09-27T00:40:55.983Z,22.44
2018-09-27T00:41:27.597Z,22.45
2018-09-27T00:41:59.238Z,22.45
2018-09-27T00:42:30.843Z,22.45
2018-09-27T00:43:02.436Z,22.45
2018-09-27T00:43:34.099Z,22.45
2018-09-27T00:44:05.688Z,22.45
2018-09-27T00:44:37.291Z,22.46
2018-09-27T00:45:08.886Z,22.46
2018-09-27T00:45:40.476Z,22.46
2018-09-27T00:46:12.064Z,22.44
2018-09-27T00:46:43.718Z,22.44
2018-09-27T00:47:15.298Z,22.47
2018-09-27T00:47:46.892Z,22.46
2018-09-27T00:48:18.494Z,22.45
2018-09-27T00:48:50.094Z,22.44
2018-09-27T00:49:21.694Z,22.44
2018-09-27T00:49:53.270Z,22.43
2018-09-27T00:50:24.847Z,22.42
2018-09-27T00:50:56.438Z,22.42
2018-09-27T00:51:28.039Z,22.42
2018-09-27T00:51:59.677Z,22.42
2018-09-27T00:52:31.272Z,22.41
2018-09-27T00:53:02.864Z,22.40
2018-09-27T00:53:34.447Z,22.44
2018-09-27T00:54:06.046Z,22.47
2018-09-27T00:54:37.640Z,22.47
2018-09-27T00:55:09.254Z,22.48
2018-09-27T00:55:40.857Z,22.49
2018-09-27T00:56:12.462Z,22.49
2018-09-27T00:56:44.070Z,22.49
2018-09-27T00:57:15.696Z,22.51
2018-09-27T00:57:47.297Z,22.50
2018-09-27T00:58:18.889Z,22.50
2018-09-27T00:58:50.499Z,22.51
2018-09-27T00:59:22.082Z,22.50
2018-09-27T00:59:53.683Z,22.51
2018-09-27T01:00:25.270Z,22.51
2018-09-27T01:00:56.879Z,22.50
2018-09-27T01:01:28.486Z,22.50
2018-09-27T01:02:00.127Z,22.50
2018-09-27T01:02:31.720Z,22.50
2018-09-27T01:03:03.299Z,22.50
2018-09-27T01:03:35.228Z,22.49
2018-09-27T01:04:06.807Z,22.49
2018-09-27T01:04:38.413Z,22.50
2018-09-27T01:05:10.014Z,22.54
2018-09-27T01:05:41.663Z,22.57
2018-09-27T01:06:13.268Z,22.58
2018-09-27T01:06:44.861Z,22.60
2018-09-27T01:07:16.498Z,22.59
2018-09-27T01:07:48.102Z,22.60
2018-09-27T01:08:19.691Z,22.62
2018-09-27T01:08:51.294Z,22.63
2018-09-27T01:09:22.898Z,22.63
2018-09-27T01:09:54.492Z,22.61
2018-09-27T01:10:26.094Z,22.62
2018-09-27T01:10:57.690Z,22.61
2018-09-27T01:11:29.292Z,22.60
2018-09-27T01:12:00.933Z,22.60
2018-09-27T01:12:32.532Z,22.61
2018-09-27T01:13:04.129Z,22.61
2018-09-27T01:13:35.738Z,22.59
2018-09-27T01:14:07.342Z,22.59
2018-09-27T01:14:38.955Z,22.58
2018-09-27T01:15:10.544Z,22.58
2018-09-27T01:15:42.146Z,22.57
2018-09-27T01:16:13.754Z,22.56
2018-09-27T01:16:45.353Z,22.56
2018-09-27T01:17:16.991Z,22.55
2018-09-27T01:17:48.580Z,22.53
2018-09-27T01:18:20.171Z,22.53
2018-09-27T01:18:51.775Z,22.52
2018-09-27T01:19:23.360Z,22.51
2018-09-27T01:19:54.952Z,22.50
2018-09-27T01:20:26.544Z,22.48
2018-09-27T01:20:58.126Z,22.50
2018-09-27T01:21:29.727Z,22.50
2018-09-27T01:22:01.335Z,22.49
2018-09-27T01:22:32.955Z,22.48
2018-09-27T01:23:04.559Z,22.48
2018-09-27T01:23:36.166Z,22.48
2018-09-27T01:24:07.756Z,22.48
2018-09-27T01:24:39.345Z,22.48
2018-09-27T01:25:10.948Z,22.48
2018-09-27T01:25:42.545Z,22.48
2018-09-27T01:26:14.135Z,22.48
2018-09-27T01:26:46.030Z,22.48
2018-09-27T01:27:17.643Z,22.46
2018-09-27T01:27:49.240Z,22.47
2018-09-27T01:28:20.845Z,22.47
2018-09-27T01:28:52.450Z,22.46
2018-09-27T01:29:24.080Z,22.46
2018-09-27T01:29:55.676Z,22.46
2018-09-27T01:30:27.278Z,22.46
2018-09-27T01:30:58.868Z,22.46
2018-09-27T01:31:30.474Z,22.47
2018-09-27T01:32:02.069Z,22.44
2018-09-27T01:32:33.715Z,22.46
2018-09-27T01:33:05.312Z,22.45
2018-09-27T01:33:36.923Z,22.45
2018-09-27T01:34:08.523Z,22.46
2018-09-27T01:34:40.131Z,22.45
2018-09-27T01:35:11.728Z,22.45
2018-09-27T01:35:43.316Z,22.45
2018-09-27T01:36:14.904Z,22.44
2018-09-27T01:36:46.496Z,22.44
2018-09-27T01:37:18.106Z,22.45
2018-09-27T01:37:49.710Z,22.44
2018-09-27T01:38:21.304Z,22.45
2018-09-27T01:38:52.892Z,22.44
2018-09-27T01:39:24.494Z,22.44
2018-09-27T01:39:56.089Z,22.43
2018-09-27T01:40:27.689Z,22.44
2018-09-27T01:40:59.280Z,22.44
2018-09-27T01:41:30.872Z,22.43
2018-09-27T01:42:02.468Z,22.41
2018-09-27T01:42:34.096Z,22.43
2018-09-27T01:43:05.698Z,22.43
2018-09-27T01:43:37.288Z,22.44
2018-09-27T01:44:08.894Z,22.44
2018-09-27T01:44:40.499Z,22.44
2018-09-27T01:45:12.101Z,22.43
2018-09-27T01:45:43.706Z,22.44
2018-09-27T01:46:15.290Z,22.43
2018-09-27T01:46:46.891Z,22.43
2018-09-27T01:47:18.526Z,22.42
2018-09-27T01:47:50.120Z,22.43
2018-09-27T01:48:21.722Z,22.44
2018-09-27T01:48:53.330Z,22.43
2018-09-27T01:49:24.953Z,22.43
2018-09-27T01:49:56.581Z,22.44
2018-09-27T01:50:28.177Z,22.43
2018-09-27T01:50:59.764Z,22.43
2018-09-27T01:51:31.353Z,22.43
2018-09-27T01:52:02.948Z,22.43
2018-09-27T01:52:34.587Z,22.44
2018-09-27T01:53:06.203Z,22.43
2018-09-27T01:53:37.801Z,22.44
2018-09-27T01:54:09.411Z,22.43
2018-09-27T01:54:41.004Z,22.43
2018-09-27T01:55:12.606Z,22.43
2018-09-27T01:55:44.222Z,22.44
2018-09-27T01:56:15.834Z,22.45
2018-09-27T01:56:47.443Z,22.47
2018-09-27T01:57:19.055Z,22.48
2018-09-27T01:57:50.671Z,22.48
2018-09-27T01:58:22.256Z,22.48
2018-09-27T01:58:53.844Z,22.48
2018-09-27T01:59:25.432Z,22.46
2018-09-27T01:59:57.034Z,22.49
2018-09-27T02:00:28.615Z,22.48
2018-09-27T02:01:00.222Z,22.49
2018-09-27T02:01:31.813Z,22.49
2018-09-27T02:02:03.414Z,22.50
2018-09-27T02:02:35.045Z,22.50
2018-09-27T02:03:06.640Z,22.50
2018-09-27T02:03:38.232Z,22.50
2018-09-27T02:04:09.840Z,22.50
2018-09-27T02:04:41.433Z,22.50
2018-09-27T02:05:13.034Z,22.50
2018-09-27T02:05:44.614Z,22.50
2018-09-27T02:06:16.219Z,22.49
2018-09-27T02:06:47.830Z,22.49
2018-09-27T02:07:19.420Z,22.50
2018-09-27T02:07:51.220Z,22.50
2018-09-27T02:08:22.826Z,22.50
2018-09-27T02:08:54.430Z,22.50
2018-09-27T02:09:26.028Z,22.50
2018-09-27T02:09:57.616Z,22.49
2018-09-27T02:10:29.219Z,22.50
2018-09-27T02:11:00.831Z,22.49
2018-09-27T02:11:32.424Z,22.50
2018-09-27T02:12:04.012Z,22.49
2018-09-27T02:12:35.640Z,22.49
2018-09-27T02:13:07.236Z,22.49
2018-09-27T02:13:38.828Z,22.49
2018-09-27T02:14:10.425Z,22.48
2018-09-27T02:14:42.020Z,22.48
2018-09-27T02:15:13.623Z,22.47
2018-09-27T02:15:45.230Z,22.47
2018-09-27T02:16:16.839Z,22.47
2018-09-27T02:16:48.443Z,22.46
2018-09-27T02:17:20.045Z,22.46
2018-09-27T02:17:51.651Z,22.46
2018-09-27T02:18:23.244Z,22.45
2018-09-27T02:18:54.847Z,22.45
2018-09-27T02:19:26.444Z,22.43
2018-09-27T02:19:58.032Z,22.43
2018-09-27T02:20:29.634Z,22.42
2018-09-27T02:21:01.210Z,22.42
2018-09-27T02:21:32.814Z,22.42
2018-09-27T02:22:04.408Z,22.42
2018-09-27T02:22:36.047Z,22.41
2018-09-27T02:23:07.661Z,22.41
2018-09-27T02:23:39.267Z,22.41
2018-09-27T02:24:10.869Z,22.40
2018-09-27T02:24:42.472Z,22.42
2018-09-27T02:25:14.058Z,22.43
2018-09-27T02:25:45.649Z,22.44
2018-09-27T02:26:17.254Z,22.44
2018-09-27T02:26:48.844Z,22.43
2018-09-27T02:27:20.436Z,22.44
2018-09-27T02:27:52.060Z,22.43
2018-09-27T02:28:23.662Z,22.47
2018-09-27T02:28:55.252Z,22.47
2018-09-27T02:29:26.844Z,22.48
2018-09-27T02:29:58.446Z,22.50
2018-09-27T02:30:30.034Z,22.51
2018-09-27T02:31:01.624Z,22.51
2018-09-27T02:31:33.230Z,22.53
2018-09-27T02:32:04.824Z,22.53
2018-09-27T02:32:36.416Z,22.55
2018-09-27T02:33:08.039Z,22.55
2018-09-27T02:33:39.627Z,22.56
2018-09-27T02:34:11.220Z,22.57
2018-09-27T02:34:42.808Z,22.57
2018-09-27T02:35:14.405Z,22.58
2018-09-27T02:35:46.010Z,22.60
2018-09-27T02:36:17.590Z,22.61
2018-09-27T02:36:49.195Z,22.61
2018-09-27T02:37:20.802Z,22.63
2018-09-27T02:37:52.429Z,22.63
2018-09-27T02:38:24.038Z,22.65
2018-09-27T02:38:55.634Z,22.66
2018-09-27T02:39:27.241Z,22.65
2018-09-27T02:39:58.836Z,22.67
2018-09-27T02:40:30.438Z,22.70
2018-09-27T02:41:02.055Z,22.76
2018-09-27T02:41:33.652Z,22.82
2018-09-27T02:42:05.231Z,22.84
2018-09-27T02:42:36.824Z,22.83
2018-09-27T02:43:08.458Z,22.80
2018-09-27T02:43:40.052Z,22.77
2018-09-27T02:44:11.645Z,22.73
2018-09-27T02:44:43.227Z,22.69
2018-09-27T02:45:14.830Z,22.67
2018-09-27T02:45:46.435Z,22.63
2018-09-27T02:46:18.033Z,22.58
2018-09-27T02:46:49.621Z,22.58
2018-09-27T02:47:21.224Z,22.54
2018-09-27T02:47:52.816Z,22.54
2018-09-27T02:48:24.449Z,22.51
2018-09-27T02:48:56.044Z,22.51
2018-09-27T02:49:27.647Z,22.48
2018-09-27T02:49:59.226Z,22.47
2018-09-27T02:50:30.842Z,22.45
2018-09-27T02:51:02.455Z,22.49
2018-09-27T02:51:34.048Z,22.55
2018-09-27T02:52:05.640Z,22.61
2018-09-27T02:52:37.232Z,22.68
2018-09-27T02:53:08.885Z,22.73
2018-09-27T02:53:40.481Z,22.82
2018-09-27T02:54:12.081Z,22.89
2018-09-27T02:54:43.672Z,22.91
2018-09-27T02:55:15.255Z,22.88
2018-09-27T02:55:46.858Z,22.83
2018-09-27T02:56:18.460Z,22.75
2018-09-27T02:56:50.056Z,22.72
2018-09-27T02:57:21.654Z,22.66
2018-09-27T02:57:53.234Z,22.61
2018-09-27T02:58:24.861Z,22.58
2018-09-27T02:58:56.450Z,22.54
2018-09-27T02:59:28.035Z,22.50
2018-09-27T02:59:59.632Z,22.46
2018-09-27T03:00:31.215Z,22.38
2018-09-27T03:01:02.806Z,22.10
2018-09-27T03:01:34.392Z,21.79
2018-09-27T03:02:05.987Z,21.54
2018-09-27T03:02:37.595Z,21.36
2018-09-27T03:03:09.234Z,21.13
2018-09-27T03:03:40.838Z,20.92
2018-09-27T03:04:12.452Z,20.75
2018-09-27T03:04:44.066Z,20.59
2018-09-27T03:05:15.647Z,20.48
2018-09-27T03:05:47.241Z,20.61
2018-09-27T03:06:18.823Z,20.75
2018-09-27T03:06:50.416Z,20.90
2018-09-27T03:07:22.012Z,21.06
2018-09-27T03:07:53.605Z,21.19
2018-09-27T03:08:25.247Z,21.30
2018-09-27T03:08:56.826Z,21.39
2018-09-27T03:09:28.417Z,21.46
2018-09-27T03:10:00.017Z,21.53
2018-09-27T03:10:31.599Z,21.58
2018-09-27T03:11:03.177Z,21.63
2018-09-27T03:11:34.771Z,21.67
2018-09-27T03:12:06.386Z,21.69
2018-09-27T03:12:37.970Z,21.73
2018-09-27T03:13:09.575Z,21.75
2018-09-27T03:13:41.228Z,21.76
2018-09-27T03:14:12.825Z,21.78
2018-09-27T03:14:44.417Z,21.79
2018-09-27T03:15:16.023Z,21.79
2018-09-27T03:15:47.616Z,21.80
2018-09-27T03:16:19.216Z,21.80
2018-09-27T03:16:50.804Z,21.79
2018-09-27T03:17:22.396Z,21.80
2018-09-27T03:17:53.989Z,21.79
2018-09-27T03:18:25.622Z,21.80
2018-09-27T03:18:57.253Z,21.81
2018-09-27T03:19:28.860Z,21.80
2018-09-27T03:20:00.467Z,21.80
2018-09-27T03:20:32.063Z,21.80
2018-09-27T03:21:03.740Z,21.78
2018-09-27T03:21:35.288Z,21.78
2018-09-27T03:22:06.892Z,21.78
2018-09-27T03:22:38.501Z,21.75
2018-09-27T03:23:10.096Z,21.78
2018-09-27T03:23:41.747Z,21.78
2018-09-27T03:24:13.332Z,21.78
2018-09-27T03:24:44.921Z,21.77
2018-09-27T03:25:16.519Z,21.76
2018-09-27T03:25:48.124Z,21.76
2018-09-27T03:26:19.712Z,21.75
2018-09-27T03:26:51.290Z,21.77
2018-09-27T03:27:22.885Z,21.76
2018-09-27T03:27:54.491Z,21.75
2018-09-27T03:28:26.088Z,21.75
2018-09-27T03:28:57.698Z,21.74
2018-09-27T03:29:29.299Z,21.74
2018-09-27T03:30:00.891Z,21.74
2018-09-27T03:30:32.480Z,21.73
2018-09-27T03:31:04.081Z,21.72
2018-09-27T03:31:35.686Z,21.72
2018-09-27T03:32:07.290Z,21.71
2018-09-27T03:32:38.885Z,21.71
2018-09-27T03:33:10.490Z,21.70
2018-09-27T03:33:42.125Z,21.70
2018-09-27T03:34:13.712Z,21.69
2018-09-27T03:34:45.300Z,21.69
2018-09-27T03:35:16.948Z,21.69
2018-09-27T03:35:48.522Z,21.68
2018-09-27T03:36:20.112Z,21.68
2018-09-27T03:36:51.719Z,21.68
2018-09-27T03:37:23.314Z,21.68
2018-09-27T03:37:54.918Z,21.68
2018-09-27T03:38:26.517Z,21.69
2018-09-27T03:38:58.140Z,21.69
2018-09-27T03:39:29.728Z,21.66
2018-09-27T03:40:01.352Z,21.68
2018-09-27T03:40:32.965Z,21.68
2018-09-27T03:41:04.555Z,21.69
2018-09-27T03:41:36.153Z,21.68
2018-09-27T03:42:07.769Z,21.69
2018-09-27T03:42:39.360Z,21.69
2018-09-27T03:43:10.962Z,21.69
2018-09-27T03:43:42.584Z,21.69
2018-09-27T03:44:14.185Z,21.69
2018-09-27T03:44:45.786Z,21.69
2018-09-27T03:45:17.398Z,21.69
2018-09-27T03:45:49.002Z,21.69
2018-09-27T03:46:20.592Z,21.69
2018-09-27T03:46:52.190Z,21.66
2018-09-27T03:47:23.788Z,21.69
2018-09-27T03:47:55.382Z,21.68
2018-09-27T03:48:26.972Z,21.68
2018-09-27T03:48:58.591Z,21.67
2018-09-27T03:49:30.195Z,21.67
2018-09-27T03:50:01.803Z,21.67
2018-09-27T03:50:33.401Z,21.67
2018-09-27T03:51:04.992Z,21.67
2018-09-27T03:51:36.596Z,21.66
2018-09-27T03:52:08.199Z,21.66
2018-09-27T03:52:39.810Z,21.66
2018-09-27T03:53:11.405Z,21.65
2018-09-27T03:53:43.042Z,21.64
2018-09-27T03:54:14.650Z,21.64
2018-09-27T03:54:46.241Z,21.64
2018-09-27T03:55:17.835Z,21.63
2018-09-27T03:55:49.420Z,21.63
2018-09-27T03:56:21.027Z,21.63
2018-09-27T03:56:52.636Z,21.62
2018-09-27T03:57:24.238Z,21.62
2018-09-27T03:57:55.847Z,21.60
2018-09-27T03:58:27.464Z,21.60
2018-09-27T03:58:59.122Z,21.59
2018-09-27T03:59:30.727Z,21.57
2018-09-27T04:00:02.324Z,21.59
2018-09-27T04:00:33.926Z,21.58
2018-09-27T04:01:05.535Z,21.57
2018-09-27T04:01:37.128Z,21.57
2018-09-27T04:02:08.730Z,21.56
2018-09-27T04:02:40.342Z,21.52
2018-09-27T04:03:12.004Z,21.54
2018-09-27T04:03:43.598Z,21.53
2018-09-27T04:04:15.189Z,21.52
2018-09-27T04:04:46.780Z,21.52
2018-09-27T04:05:18.368Z,21.51
2018-09-27T04:05:49.976Z,21.50
2018-09-27T04:06:21.605Z,21.50
2018-09-27T04:06:53.194Z,21.49
2018-09-27T04:07:24.788Z,21.48
2018-09-27T04:07:56.384Z,21.46
2018-09-27T04:08:27.976Z,21.47
2018-09-27T04:08:59.610Z,21.45
2018-09-27T04:09:31.209Z,21.46
2018-09-27T04:10:02.805Z,21.46
2018-09-27T04:10:34.405Z,21.45
2018-09-27T04:11:05.996Z,21.44
2018-09-27T04:11:37.602Z,21.44
2018-09-27T04:12:09.207Z,21.42
2018-09-27T04:12:40.841Z,21.43
2018-09-27T04:13:12.402Z,21.43
2018-09-27T04:13:44.024Z,21.42
2018-09-27T04:14:15.633Z,21.41
2018-09-27T04:14:47.224Z,21.40
2018-09-27T04:15:18.825Z,21.39
2018-09-27T04:15:50.457Z,21.39
2018-09-27T04:16:22.051Z,21.38
2018-09-27T04:16:53.640Z,21.38
2018-09-27T04:17:25.242Z,21.38
2018-09-27T04:17:56.823Z,21.37
2018-09-27T04:18:28.412Z,21.36
2018-09-27T04:19:00.031Z,21.36
2018-09-27T04:19:31.635Z,21.36
2018-09-27T04:20:03.243Z,21.34
2018-09-27T04:20:34.850Z,21.34
2018-09-27T04:21:06.440Z,21.33
2018-09-27T04:21:38.076Z,21.33
2018-09-27T04:22:09.643Z,21.32
2018-09-27T04:22:41.246Z,21.29
2018-09-27T04:23:12.850Z,21.30
2018-09-27T04:23:44.466Z,21.29
2018-09-27T04:24:16.072Z,21.29
2018-09-27T04:24:47.654Z,21.28
2018-09-27T04:25:19.255Z,21.28
2018-09-27T04:25:50.863Z,21.27
2018-09-27T04:26:22.452Z,21.27
2018-09-27T04:26:55.146Z,21.26
2018-09-27T04:27:26.740Z,21.25
2018-09-27T04:27:58.333Z,21.25
2018-09-27T04:28:29.910Z,21.24
2018-09-27T04:29:01.500Z,21.24
2018-09-27T04:29:33.110Z,21.23
2018-09-27T04:30:04.715Z,21.23
2018-09-27T04:30:36.318Z,21.20
2018-09-27T04:31:07.912Z,21.21
2018-09-27T04:31:39.522Z,21.21
2018-09-27T04:32:11.126Z,21.20
2018-09-27T04:32:42.724Z,21.20
2018-09-27T04:33:14.316Z,21.20
2018-09-27T04:33:45.931Z,21.20
2018-09-27T04:34:17.537Z,21.19
2018-09-27T04:34:49.128Z,21.19
2018-09-27T04:35:20.723Z,21.18
2018-09-27T04:35:52.331Z,21.18
2018-09-27T04:36:23.939Z,21.17
2018-09-27T04:36:55.523Z,21.17
2018-09-27T04:37:27.119Z,21.17
2018-09-27T04:37:58.712Z,21.17
2018-09-27T04:38:30.315Z,21.17
2018-09-27T04:39:01.945Z,21.16
2018-09-27T04:39:33.540Z,21.16
2018-09-27T04:40:05.147Z,21.15
2018-09-27T04:40:36.727Z,21.15
2018-09-27T04:41:08.303Z,21.15
2018-09-27T04:41:39.923Z,21.14
2018-09-27T04:42:11.515Z,21.15
2018-09-27T04:42:43.109Z,21.15
2018-09-27T04:43:14.710Z,21.14
2018-09-27T04:43:46.315Z,21.13
2018-09-27T04:44:17.941Z,21.14
2018-09-27T04:44:49.536Z,21.13
2018-09-27T04:45:21.128Z,21.13
2018-09-27T04:45:52.792Z,21.12
2018-09-27T04:46:24.361Z,21.12
2018-09-27T04:46:55.962Z,21.11
2018-09-27T04:47:27.552Z,21.11
2018-09-27T04:47:59.148Z,21.11
2018-09-27T04:48:30.744Z,21.11
2018-09-27T04:49:02.375Z,21.10
2018-09-27T04:49:33.958Z,21.10
2018-09-27T04:50:05.953Z,21.08
2018-09-27T04:50:37.559Z,21.10
2018-09-27T04:51:09.152Z,21.09
2018-09-27T04:51:40.788Z,21.09
2018-09-27T04:52:12.352Z,21.09
2018-09-27T04:52:43.947Z,21.07
2018-09-27T04:53:15.541Z,21.07
2018-09-27T04:53:47.169Z,21.08
2018-09-27T04:54:18.803Z,21.06
2018-09-27T04:54:50.399Z,21.08
2018-09-27T04:55:21.993Z,21.05
2018-09-27T04:55:53.588Z,21.05
2018-09-27T04:56:25.175Z,21.04
2018-09-27T04:56:56.764Z,21.03
2018-09-27T04:57:28.384Z,21.05
2018-09-27T04:57:59.975Z,21.05
2018-09-27T04:58:31.579Z,21.05
2018-09-27T04:59:03.204Z,21.05
2018-09-27T04:59:34.842Z,21.05
2018-09-27T05:00:06.523Z,21.05
2018-09-27T05:00:38.043Z,21.05
2018-09-27T05:01:09.633Z,21.04
2018-09-27T05:01:41.224Z,21.05
2018-09-27T05:02:12.817Z,21.05
2018-09-27T05:02:44.427Z,21.05
2018-09-27T05:03:16.017Z,21.06
2018-09-27T05:03:47.694Z,21.06
2018-09-27T05:04:19.271Z,21.04
2018-09-27T05:04:50.865Z,21.06
2018-09-27T05:05:22.452Z,21.05
2018-09-27T05:05:54.047Z,21.08
2018-09-27T05:06:25.670Z,21.08
2018-09-27T05:06:57.257Z,21.09
2018-09-27T05:07:28.850Z,21.10
2018-09-27T05:08:00.439Z,21.11
2018-09-27T05:08:32.023Z,21.10
2018-09-27T05:09:03.631Z,21.13
2018-09-27T05:09:35.297Z,21.14
2018-09-27T05:10:06.864Z,21.16
2018-09-27T05:10:38.457Z,21.17
2018-09-27T05:11:10.048Z,21.18
2018-09-27T05:11:41.655Z,21.17
2018-09-27T05:12:13.258Z,21.21
2018-09-27T05:12:44.848Z,21.21
2018-09-27T05:13:16.440Z,21.25
2018-09-27T05:13:48.042Z,21.26
2018-09-27T05:14:19.668Z,21.27
2018-09-27T05:14:51.271Z,21.29
2018-09-27T05:15:22.901Z,21.29
2018-09-27T05:15:54.544Z,21.30
2018-09-27T05:16:26.113Z,21.30
2018-09-27T05:16:57.690Z,21.32
2018-09-27T05:17:29.268Z,21.32
2018-09-27T05:18:00.861Z,21.33
2018-09-27T05:18:32.453Z,21.35
2018-09-27T05:19:04.066Z,21.35
2018-09-27T05:19:35.682Z,21.36
2018-09-27T05:20:07.286Z,21.37
2018-09-27T05:20:38.867Z,21.38
2018-09-27T05:21:10.474Z,21.36
2018-09-27T05:21:42.092Z,21.40
2018-09-27T05:22:13.684Z,21.40
2018-09-27T05:22:45.290Z,21.40
2018-09-27T05:23:16.884Z,21.40
2018-09-27T05:23:48.477Z,21.40
2018-09-27T05:24:20.115Z,21.40
2018-09-27T05:24:51.694Z,21.41
2018-09-27T05:25:23.289Z,21.42
2018-09-27T05:25:54.894Z,21.42
2018-09-27T05:26:26.475Z,21.43
2018-09-27T05:26:58.073Z,21.42
2018-09-27T05:27:29.701Z,21.44
2018-09-27T05:28:01.312Z,21.44
2018-09-27T05:28:32.905Z,21.44
2018-09-27T05:29:04.506Z,21.43
2018-09-27T05:29:36.132Z,21.46
2018-09-27T05:30:07.735Z,21.45
2018-09-27T05:30:39.329Z,21.45
2018-09-27T05:31:10.924Z,21.46
2018-09-27T05:31:42.513Z,21.46
2018-09-27T05:32:14.100Z,21.45
2018-09-27T05:32:45.705Z,21.45
2018-09-27T05:33:17.286Z,21.43
2018-09-27T05:33:48.868Z,21.45
2018-09-27T05:34:20.496Z,21.44
2018-09-27T05:34:52.120Z,21.45
2018-09-27T05:35:23.713Z,21.46
2018-09-27T05:35:55.322Z,21.45
2018-09-27T05:36:26.935Z,21.44
2018-09-27T05:36:58.546Z,21.45
2018-09-27T05:37:30.127Z,21.44
2018-09-27T05:38:01.735Z,21.44
2018-09-27T05:38:33.328Z,21.45
2018-09-27T05:39:04.940Z,21.44
2018-09-27T05:39:36.622Z,21.44
2018-09-27T05:40:08.208Z,21.42
2018-09-27T05:40:39.810Z,21.42
2018-09-27T05:41:11.404Z,21.42
2018-09-27T05:41:43.010Z,21.42
2018-09-27T05:42:14.604Z,21.41
2018-09-27T05:42:46.211Z,21.39
2018-09-27T05:43:18.828Z,21.40
2018-09-27T05:43:50.426Z,21.41
2018-09-27T05:44:22.025Z,21.40
2018-09-27T05:44:53.638Z,21.40
2018-09-27T05:45:25.243Z,21.40
2018-09-27T05:45:56.862Z,21.37
2018-09-27T05:46:28.457Z,21.38
2018-09-27T05:47:00.072Z,21.38
2018-09-27T05:47:31.678Z,21.37
2018-09-27T05:48:03.277Z,21.36
2018-09-27T05:48:34.864Z,21.36
2018-09-27T05:49:06.453Z,21.35
2018-09-27T05:49:38.091Z,21.33
2018-09-27T05:50:09.684Z,21.31
2018-09-27T05:50:41.276Z,21.30
2018-09-27T05:51:12.882Z,21.30
2018-09-27T05:51:44.463Z,21.30
2018-09-27T05:52:16.052Z,21.29
2018-09-27T05:52:47.654Z,21.29
2018-09-27T05:53:19.258Z,21.29
2018-09-27T05:53:50.862Z,21.28
2018-09-27T05:54:22.457Z,21.27
2018-09-27T05:54:54.095Z,21.27
2018-09-27T05:55:25.684Z,21.26
2018-09-27T05:55:57.290Z,21.25
2018-09-27T05:56:28.896Z,21.25
2018-09-27T05:57:00.502Z,21.24
2018-09-27T05:57:32.123Z,21.24
2018-09-27T05:58:03.698Z,21.23
2018-09-27T05:58:35.283Z,21.22
2018-09-27T05:59:06.887Z,21.21
2018-09-27T05:59:38.512Z,21.20
2018-09-27T06:00:10.115Z,21.20
2018-09-27T06:00:41.698Z,21.19
2018-09-27T06:01:13.281Z,21.18
2018-09-27T06:01:44.876Z,21.18
2018-09-27T06:02:16.483Z,21.18
2018-09-27T06:02:48.080Z,21.16
2018-09-27T06:03:19.679Z,21.16
2018-09-27T06:03:51.272Z,21.16
2018-09-27T06:04:22.864Z,21.14
2018-09-27T06:04:54.505Z,21.15
2018-09-27T06:05:26.092Z,21.14
2018-09-27T06:05:57.695Z,21.13
2018-09-27T06:06:29.298Z,21.13
2018-09-27T06:07:00.893Z,21.13
2018-09-27T06:07:32.505Z,21.13
2018-09-27T06:08:04.100Z,21.12
2018-09-27T06:08:35.697Z,21.12
2018-09-27T06:09:07.289Z,21.12
2018-09-27T06:09:38.938Z,21.11
2018-09-27T06:10:10.536Z,21.10
2018-09-27T06:10:42.143Z,21.10
2018-09-27T06:11:13.791Z,21.10
2018-09-27T06:11:45.370Z,21.09
2018-09-27T06:12:16.982Z,21.09
2018-09-27T06:12:48.572Z,21.09
2018-09-27T06:13:20.174Z,21.08
2018-09-27T06:13:51.779Z,21.08
2018-09-27T06:14:23.371Z,21.08
2018-09-27T06:14:55.008Z,21.06
2018-09-27T06:15:26.653Z,21.07
2018-09-27T06:15:58.225Z,21.06
2018-09-27T06:16:29.815Z,21.06
2018-09-27T06:17:01.395Z,21.05
2018-09-27T06:17:33.002Z,21.05
2018-09-27T06:18:04.597Z,21.04
2018-09-27T06:18:36.189Z,21.03
2018-09-27T06:19:07.798Z,21.03
2018-09-27T06:19:39.412Z,21.02
2018-09-27T06:20:11.080Z,21.02
2018-09-27T06:20:42.676Z,21.02
2018-09-27T06:21:14.296Z,20.99
2018-09-27T06:21:45.884Z,21.00
2018-09-27T06:22:17.472Z,21.00
2018-09-27T06:22:49.079Z,20.99
2018-09-27T06:23:20.684Z,20.98
2018-09-27T06:23:52.284Z,20.98
2018-09-27T06:24:23.889Z,20.98
2018-09-27T06:24:55.531Z,20.97
2018-09-27T06:25:27.138Z,20.96
2018-09-27T06:25:58.758Z,20.96
2018-09-27T06:26:30.364Z,20.96
2018-09-27T06:27:01.956Z,20.95
2018-09-27T06:27:33.591Z,20.84
2018-09-27T06:28:05.161Z,20.94
2018-09-27T06:28:36.767Z,20.94
2018-09-27T06:29:08.364Z,20.93
2018-09-27T06:29:39.966Z,20.92
2018-09-27T06:30:11.592Z,20.91
2018-09-27T06:30:43.194Z,20.92
2018-09-27T06:31:14.792Z,20.91
2018-09-27T06:31:46.396Z,20.90
2018-09-27T06:32:18.002Z,20.90
2018-09-27T06:32:49.596Z,20.89
2018-09-27T06:33:21.199Z,20.90
2018-09-27T06:33:52.809Z,20.89
2018-09-27T06:34:24.415Z,20.89
2018-09-27T06:34:56.083Z,20.86
2018-09-27T06:35:27.681Z,20.88
2018-09-27T06:35:59.287Z,20.88
2018-09-27T06:36:30.891Z,20.88
2018-09-27T06:37:02.484Z,20.88
2018-09-27T06:37:34.090Z,20.88
2018-09-27T06:38:05.685Z,20.88
2018-09-27T06:38:37.285Z,20.87
2018-09-27T06:39:08.910Z,20.87
2018-09-27T06:39:40.500Z,20.86
2018-09-27T06:40:12.111Z,20.87
2018-09-27T06:40:43.714Z,20.86
2018-09-27T06:41:15.348Z,20.86
2018-09-27T06:41:46.955Z,20.86
2018-09-27T06:42:18.599Z,20.86
2018-09-27T06:42:50.186Z,20.86
2018-09-27T06:43:21.773Z,20.86
2018-09-27T06:43:53.365Z,20.86
2018-09-27T06:44:25.012Z,20.86
2018-09-27T06:44:56.628Z,20.87
2018-09-27T06:45:28.230Z,20.86
2018-09-27T06:45:59.820Z,20.86
2018-09-27T06:46:31.422Z,20.87
2018-09-27T06:47:03.030Z,20.87